createdAt,value
2023-05-18T00:04:48.252Z,100282.25
2023-05-18T00:10:50.721Z,100279.28
2023-05-18T00:16:55.724Z,100274.22
2023-05-18T00:23:03.669Z,100268.00
2023-05-18T00:29:07.953Z,100264.53
2023-05-18T00:35:12.632Z,100273.34
2023-05-18T00:41:15.345Z,100272.47
2023-05-18T00:47:18.830Z,100270.03
2023-05-18T00:53:21.970Z,100266.63
2023-05-18T00:59:24.322Z,100275.25
2023-05-18T01:05:28.628Z,100273.81
2023-05-18T01:11:51.720Z,100275.81
2023-05-18T01:18:26.019Z,100277.59
2023-05-18T01:24:45.828Z,100294.59
2023-05-18T01:30:49.115Z,100293.50
2023-05-18T01:36:52.901Z,100291.53
2023-05-18T01:43:01.478Z,100298.19
2023-05-18T01:49:57.903Z,100293.53
2023-05-18T01:56:01.136Z,100281.56
2023-05-18T02:02:04.287Z,100284.69
2023-05-18T02:08:07.730Z,100288.22
2023-05-18T02:14:10.546Z,100280.31
2023-05-18T02:20:13.891Z,100284.78
2023-05-18T02:26:17.204Z,100292.88
2023-05-18T02:32:28.213Z,100297.97
2023-05-18T02:38:31.630Z,100295.88
2023-05-18T02:44:35.664Z,100290.00
2023-05-18T02:50:37.879Z,100289.09
2023-05-18T02:56:44.059Z,100294.31
2023-05-18T03:03:06.664Z,100303.41
2023-05-18T03:09:09.367Z,100306.06
2023-05-18T03:15:18.191Z,100315.59
2023-05-18T03:21:22.189Z,100328.81
2023-05-18T03:27:26.986Z,100333.22
2023-05-18T03:33:30.652Z,100340.06
2023-05-18T03:39:33.215Z,100343.44
2023-05-18T03:45:36.348Z,100350.53
2023-05-18T03:51:39.587Z,100352.94
2023-05-18T03:57:41.848Z,100359.19
2023-05-18T04:03:45.460Z,100354.94
2023-05-18T04:09:55.765Z,100358.38
2023-05-18T04:16:00.458Z,100358.06
